Auriesville, NY

7:38 PM EDT on August 31, 2016 (GMT -0400)
rural | | Change Station

Elev 289 ft 42.94 °N, 74.28 °W | Updated 5 minutes ago

Mostly Cloudy
Mostly Cloudy
73.9 °F
Feels Like 74 °F
N
0.0
Wind Variable Wind from SE

Today
High -- | Low -- °F
--% Chance of Precip.
Yesterday
High -- | Low -- °F
Precip. -- in
Pressure 29.86 in
Visibility 10.0 miles
Clouds Scattered Clouds 6500 ft
Mostly Cloudy 15000 ft
Mostly Cloudy 24000 ft
Mostly Cloudy 26000 ft
Heat Index 74 °F
Dew Point 68 °F
Humidity 81%
Rainfall 0.00 in
Snow Depth Not available.
6:21 AM 7:32 PM
Waning Crescent, 0% visible
METAR KALB 312251Z 18004KT 10SM SCT065 BKN150 BKN240 BKN260 24/19 A2986 RMK AO2 SLP109 T02390189
Pressure 29.86 in
Visibility 10.0 miles
Clouds Scattered Clouds 6500 ft
Mostly Cloudy 15000 ft
Mostly Cloudy 24000 ft
Mostly Cloudy 26000 ft
Heat Index 74 °F
Dew Point 68 °F
Humidity 81%
Rainfall 0.00 in
Snow Depth Not available.
6:21 AM 7:32 PM
Waning Crescent, 0% visible
METAR KALB 312251Z 18004KT 10SM SCT065 BKN150 BKN240 BKN260 24/19 A2986 RMK AO2 SLP109 T02390189

10-Day Weather Forecast

Almanac

Astronomy

Aug. 31, 2016 Rise Set
Actual Time
Civil Twilight
Nautical Twilight
Astronomical Twilight
Moon
Length of Visible Light
Length of Day
Tomorrow will be .
, % of the Moon is Illuminated

Today's Extremes

State Highs State Lows

Community

WunderPhotos

Upload Photos

1,936,215 photos uploaded!

WunderBlog® & News

Nearby

Air Quality

  Air Quality AQ Index Pollutant
Not available.

Snow Depth

Station Depth Elevation

Earthquake Activity

City Distance Mag. Time & Date
Minimum magnitude displayed is 2.5.

Coastal Water Temperatures

Place Temperature

Stations

Nearby Weather Stations

Station Location Temp. Windchill Dew Point Humidity Wind Precip. Elev Updated Type
                   

Watches & Warnings

There are currently no watches in effect.